createdAt,value
2023-01-23T00:00:58.386Z,100.00
2023-01-23T00:07:00.270Z,100.00
2023-01-23T00:13:02.190Z,100.00
2023-01-23T00:19:04.124Z,99.91
2023-01-23T00:25:07.494Z,100.00
2023-01-23T00:31:16.217Z,100.00
2023-01-23T00:37:18.173Z,99.44
2023-01-23T00:43:21.370Z,99.34
2023-01-23T00:49:24.733Z,99.52
2023-01-23T00:55:26.778Z,99.59
2023-01-23T01:01:31.366Z,99.81
2023-01-23T01:07:33.497Z,99.91
2023-01-23T01:13:35.900Z,99.82
2023-01-23T01:19:37.891Z,100.00
2023-01-23T01:25:40.624Z,99.84
2023-01-23T01:31:42.612Z,100.00
2023-01-23T01:37:44.581Z,100.00
2023-01-23T01:43:47.061Z,100.00
2023-01-23T01:49:52.916Z,100.00
2023-01-23T01:55:56.584Z,100.00
2023-01-23T02:02:14.529Z,100.00
2023-01-23T02:08:35.696Z,100.00
2023-01-23T02:14:37.663Z,100.00
2023-01-23T02:20:39.794Z,100.00
2023-01-23T02:26:44.832Z,99.86
2023-01-23T02:32:47.297Z,100.00
2023-01-23T02:39:14.325Z,99.86
2023-01-23T02:45:16.343Z,100.00
2023-01-23T02:51:18.724Z,99.82
2023-01-23T02:57:20.684Z,99.61
2023-01-23T03:03:23.046Z,100.00
2023-01-23T03:09:25.131Z,99.89
2023-01-23T03:15:27.086Z,99.44
2023-01-23T03:21:29.037Z,99.72
2023-01-23T03:27:32.150Z,99.40
2023-01-23T03:33:34.029Z,99.38
2023-01-23T03:39:55.065Z,99.68
2023-01-23T03:45:57.013Z,99.83
2023-01-23T03:51:59.607Z,99.87
2023-01-23T03:58:01.537Z,99.39
2023-01-23T04:04:03.928Z,99.26
2023-01-23T04:10:06.118Z,99.72
2023-01-23T04:16:08.594Z,98.62
2023-01-23T04:22:10.707Z,98.42
2023-01-23T04:28:13.114Z,98.61
2023-01-23T04:34:15.003Z,98.76
2023-01-23T04:40:17.416Z,97.74
2023-01-23T04:46:19.612Z,98.16
2023-01-23T04:52:21.490Z,98.92
2023-01-23T04:58:23.425Z,99.17
2023-01-23T05:04:25.324Z,99.94
2023-01-23T05:10:27.596Z,99.74
2023-01-23T05:16:29.517Z,98.97
2023-01-23T05:22:31.522Z,98.43
2023-01-23T05:28:33.428Z,99.50
2023-01-23T05:34:35.555Z,99.71
2023-01-23T05:40:37.506Z,98.54
2023-01-23T05:46:39.492Z,98.45
2023-01-23T05:52:41.499Z,97.63
2023-01-23T05:58:43.403Z,98.02
2023-01-23T06:04:48.859Z,97.69
2023-01-23T06:10:51.390Z,97.84
2023-01-23T06:16:53.315Z,98.08
2023-01-23T06:22:55.227Z,97.90
2023-01-23T06:28:57.145Z,97.60
2023-01-23T06:34:59.026Z,98.22
2023-01-23T06:41:01.016Z,97.77
2023-01-23T06:47:03.559Z,97.62
2023-01-23T06:53:05.593Z,98.64
2023-01-23T06:59:07.618Z,98.67
2023-01-23T07:05:09.784Z,98.81
2023-01-23T07:11:12.025Z,98.68
2023-01-23T07:17:13.895Z,98.87
2023-01-23T07:23:16.569Z,98.82
2023-01-23T07:29:18.440Z,98.53
2023-01-23T07:35:21.155Z,98.97
2023-01-23T07:41:23.138Z,98.13
2023-01-23T07:47:25.070Z,98.89
2023-01-23T07:53:27.022Z,98.96
2023-01-23T07:59:28.940Z,99.02
2023-01-23T08:05:30.868Z,98.57
2023-01-23T08:11:34.383Z,98.00
2023-01-23T08:17:36.907Z,98.86
2023-01-23T08:23:41.013Z,98.48
2023-01-23T08:29:43.042Z,98.53
2023-01-23T08:35:53.216Z,98.05
2023-01-23T08:41:55.115Z,97.99
2023-01-23T08:47:57.733Z,97.17
2023-01-23T08:53:59.666Z,96.46
2023-01-23T09:00:01.655Z,95.38
2023-01-23T09:06:03.711Z,95.64
2023-01-23T09:12:05.709Z,95.10
2023-01-23T09:18:07.667Z,94.98
2023-01-23T09:24:09.663Z,94.33
2023-01-23T09:30:12.314Z,94.99
2023-01-23T09:36:14.233Z,93.57
2023-01-23T09:42:32.071Z,93.15
2023-01-23T09:48:45.272Z,92.10
2023-01-23T09:54:49.915Z,92.32
2023-01-23T10:00:52.226Z,90.62
2023-01-23T10:07:07.618Z,90.38
2023-01-23T10:13:16.711Z,90.76
2023-01-23T10:19:57.629Z,90.05
2023-01-23T10:26:02.868Z,89.55
2023-01-23T10:32:23.600Z,89.75
2023-01-23T10:38:31.220Z,89.76
2023-01-23T10:44:33.100Z,88.57
2023-01-23T10:50:39.496Z,87.57
2023-01-23T10:57:29.962Z,86.13
2023-01-23T11:03:35.634Z,86.53
2023-01-23T11:10:20.984Z,86.33
2023-01-23T11:16:24.092Z,85.94
2023-01-23T11:22:41.764Z,84.47
2023-01-23T11:28:49.037Z,84.38
2023-01-23T11:35:03.127Z,84.03
2023-01-23T11:41:05.671Z,83.73
2023-01-23T11:47:36.096Z,84.42
2023-01-23T11:54:35.356Z,84.36
2023-01-23T12:01:11.793Z,86.65
2023-01-23T12:07:17.950Z,85.85
2023-01-23T12:14:02.356Z,87.09
2023-01-23T12:20:04.277Z,87.56
2023-01-23T12:26:24.547Z,88.79
2023-01-23T12:33:01.683Z,88.53
2023-01-23T12:39:32.235Z,90.04
2023-01-23T12:45:34.410Z,89.79
2023-01-23T12:51:44.282Z,89.60
2023-01-23T12:58:00.135Z,89.59
2023-01-23T13:04:19.620Z,89.31
2023-01-23T13:11:04.693Z,89.14
2023-01-23T13:17:31.783Z,88.92
2023-01-23T13:23:38.655Z,89.05
2023-01-23T13:29:50.347Z,89.08
2023-01-23T13:35:54.931Z,89.49
2023-01-23T13:42:15.065Z,89.11
2023-01-23T14:22:31.241Z,92.77
2023-01-23T14:28:33.198Z,93.71
2023-01-23T14:34:40.124Z,93.72
2023-01-23T14:40:50.732Z,93.96
2023-01-23T14:46:57.789Z,95.90
2023-01-23T14:53:15.262Z,97.15
2023-01-23T14:59:29.860Z,97.11
2023-01-23T15:05:32.857Z,98.13
2023-01-23T15:11:35.518Z,98.71
2023-01-23T15:17:37.518Z,99.11
2023-01-23T15:23:41.088Z,99.86
2023-01-23T15:29:44.824Z,99.68
2023-01-23T15:35:47.247Z,100.00
2023-01-23T15:41:55.060Z,100.00
2023-01-23T15:47:57.071Z,100.00
2023-01-23T15:53:59.033Z,100.00
2023-01-23T16:00:01.285Z,100.00
2023-01-23T16:06:04.983Z,100.00
2023-01-23T16:12:17.668Z,100.00
2023-01-23T16:18:19.685Z,100.00
2023-01-23T16:24:24.074Z,100.00
2023-01-23T16:30:27.701Z,100.00
2023-01-23T16:36:30.334Z,100.00
2023-01-23T16:42:32.848Z,100.00
2023-01-23T16:48:34.737Z,100.00
2023-01-23T16:54:36.673Z,100.00
2023-01-23T17:00:40.649Z,100.00
2023-01-23T17:06:42.842Z,99.79
2023-01-23T17:12:45.181Z,99.96
2023-01-23T17:18:47.166Z,99.58
2023-01-23T17:24:49.502Z,99.31
2023-01-23T17:30:54.868Z,100.00
2023-01-23T17:36:57.167Z,99.62
2023-01-23T17:42:59.259Z,99.50
2023-01-23T17:49:01.480Z,98.73
2023-01-23T17:55:03.613Z,97.85
2023-01-23T18:01:22.017Z,97.98
2023-01-23T18:07:24.240Z,97.63
2023-01-23T18:13:47.083Z,97.90
2023-01-23T18:19:51.619Z,97.48
2023-01-23T18:26:38.586Z,97.88
2023-01-23T18:33:02.329Z,98.17
2023-01-23T18:39:23.503Z,97.78
2023-01-23T18:45:27.731Z,98.61
2023-01-23T18:51:40.095Z,98.45
2023-01-23T18:58:15.687Z,98.21
2023-01-23T19:04:18.543Z,97.81
2023-01-23T19:10:28.032Z,98.48
2023-01-23T19:16:37.251Z,98.22
2023-01-23T19:23:16.329Z,97.91
2023-01-23T19:29:22.300Z,98.44
2023-01-23T19:35:24.768Z,99.33
2023-01-23T19:41:49.055Z,98.31
2023-01-23T19:47:53.253Z,98.45
2023-01-23T19:53:55.598Z,98.30
2023-01-23T19:59:57.470Z,97.96
2023-01-23T20:05:59.701Z,98.01
2023-01-23T20:12:01.610Z,97.63
2023-01-23T20:18:03.576Z,97.67
2023-01-23T20:24:07.369Z,97.23
2023-01-23T20:30:16.227Z,96.33
2023-01-23T20:36:18.117Z,95.36
2023-01-23T20:42:20.362Z,96.19
2023-01-23T20:48:22.653Z,95.47
2023-01-23T20:54:24.584Z,95.33
2023-01-23T21:00:26.483Z,94.43
2023-01-23T21:06:28.374Z,94.32
2023-01-23T21:12:30.323Z,95.19
2023-01-23T21:18:37.118Z,94.85
2023-01-23T21:24:39.123Z,94.95
2023-01-23T21:30:41.387Z,95.17
2023-01-23T21:36:44.028Z,95.32
2023-01-23T21:42:45.945Z,95.33
2023-01-23T21:48:47.894Z,95.43
2023-01-23T21:54:49.779Z,94.87
2023-01-23T22:01:26.528Z,95.36
2023-01-23T22:07:28.511Z,95.32
2023-01-23T22:13:30.430Z,95.45
2023-01-23T22:19:32.322Z,95.29
2023-01-23T22:25:34.261Z,95.45
2023-01-23T22:31:36.401Z,95.65
2023-01-23T22:37:40.073Z,95.63
2023-01-23T22:43:42.082Z,95.82
2023-01-23T22:49:44.087Z,95.99
2023-01-23T22:55:45.955Z,95.93
2023-01-23T23:01:47.832Z,95.90
2023-01-23T23:07:49.699Z,95.57
2023-01-23T23:13:52.698Z,95.63
2023-01-23T23:19:54.589Z,95.57
2023-01-23T23:25:57.505Z,95.71
2023-01-23T23:31:59.530Z,95.69
2023-01-23T23:38:01.614Z,95.51
2023-01-23T23:44:03.744Z,95.13
2023-01-23T23:50:06.328Z,95.63
2023-01-23T23:56:08.749Z,94.91
